Terminal Aerodrome Forecast
Issued by NWS

Home | Current Version | Previous Version | Text Only | Print | Product List | Glossary On
Versions: 1 2 3 4 5 6 7 8 9 10 11 12 13 14 15 16
000
FTUS42 TJSJ 262300
TAFNCM
TAF
TNCM 262331Z 2700/2724 07012KT P6SM VCSH SCT018
     FM270200 08009KT P6SM FEW018
     FM271400 11010KT P6SM FEW022
     FM272300 10006KT P6SM SCT018=

USA.gov is the U.S. government's official web portal to all federal, state and local government web resources and services.